sensor_id;sensor_type;location;lat;lon;timestamp;pressure;altitude;pressure_sealevel;temperature;humidity
6208;BME280;3137;51.550;7.060;2022-12-07T00:01:34;101320.72;;;4.00;89.36
6208;BME280;3137;51.550;7.060;2022-12-07T00:04:02;101327.06;;;3.94;89.38
6208;BME280;3137;51.550;7.060;2022-12-07T00:06:33;101331.63;;;3.91;89.64
6208;BME280;3137;51.550;7.060;2022-12-07T00:08:59;101332.53;;;3.90;89.55
6208;BME280;3137;51.550;7.060;2022-12-07T00:11:26;101328.22;;;3.87;89.75
6208;BME280;3137;51.550;7.060;2022-12-07T00:13:58;101319.00;;;3.97;89.60
6208;BME280;3137;51.550;7.060;2022-12-07T00:16:27;101324.44;;;3.94;89.94
6208;BME280;3137;51.550;7.060;2022-12-07T00:18:54;101320.88;;;3.95;89.52
6208;BME280;3137;51.550;7.060;2022-12-07T00:21:29;101310.13;;;4.00;89.95
6208;BME280;3137;51.550;7.060;2022-12-07T00:23:56;101311.13;;;3.96;89.47
6208;BME280;3137;51.550;7.060;2022-12-07T00:26:28;101315.41;;;4.00;90.21
6208;BME280;3137;51.550;7.060;2022-12-07T00:29:01;101317.88;;;4.04;89.57
6208;BME280;3137;51.550;7.060;2022-12-07T00:31:31;101318.81;;;4.03;89.48
6208;BME280;3137;51.550;7.060;2022-12-07T00:33:59;101307.28;;;4.04;89.79
6208;BME280;3137;51.550;7.060;2022-12-07T00:36:25;101305.44;;;4.07;90.43
6208;BME280;3137;51.550;7.060;2022-12-07T00:38:54;101307.91;;;4.13;90.06
6208;BME280;3137;51.550;7.060;2022-12-07T00:41:23;101311.63;;;4.07;90.18
6208;BME280;3137;51.550;7.060;2022-12-07T00:43:50;101305.53;;;4.05;90.47
6208;BME280;3137;51.550;7.060;2022-12-07T00:46:17;101303.63;;;4.09;90.51
6208;BME280;3137;51.550;7.060;2022-12-07T00:48:45;101310.53;;;4.13;89.78
6208;BME280;3137;51.550;7.060;2022-12-07T00:51:14;101305.06;;;4.17;89.59
6208;BME280;3137;51.550;7.060;2022-12-07T00:53:40;101300.50;;;4.21;89.69
6208;BME280;3137;51.550;7.060;2022-12-07T00:58:41;101301.41;;;4.21;90.05
6208;BME280;3137;51.550;7.060;2022-12-07T01:01:09;101306.78;;;4.18;89.78
6208;BME280;3137;51.550;7.060;2022-12-07T01:03:37;101294.06;;;4.28;89.78
6208;BME280;3137;51.550;7.060;2022-12-07T01:06:04;101287.22;;;4.22;89.53
6208;BME280;3137;51.550;7.060;2022-12-07T01:08:31;101291.59;;;4.23;89.72
6208;BME280;3137;51.550;7.060;2022-12-07T01:11:06;101287.22;;;4.22;89.96
6208;BME280;3137;51.550;7.060;2022-12-07T01:13:34;101285.44;;;4.23;90.06
6208;BME280;3137;51.550;7.060;2022-12-07T01:16:03;101285.31;;;4.26;89.41
6208;BME280;3137;51.550;7.060;2022-12-07T01:18:32;101290.81;;;4.21;89.40
6208;BME280;3137;51.550;7.060;2022-12-07T01:23:28;101286.25;;;4.25;89.89
6208;BME280;3137;51.550;7.060;2022-12-07T01:25:59;101287.34;;;4.19;89.33
6208;BME280;3137;51.550;7.060;2022-12-07T01:28:26;101294.59;;;4.14;89.41
6208;BME280;3137;51.550;7.060;2022-12-07T01:31:01;101299.66;;;4.20;89.77
6208;BME280;3137;51.550;7.060;2022-12-07T01:33:30;101290.84;;;4.20;89.58
6208;BME280;3137;51.550;7.060;2022-12-07T01:38:48;101292.03;;;4.11;89.71
6208;BME280;3137;51.550;7.060;2022-12-07T01:41:15;101294.63;;;4.13;89.61
6208;BME280;3137;51.550;7.060;2022-12-07T01:46:55;101300.97;;;4.09;90.15
6208;BME280;3137;51.550;7.060;2022-12-07T01:49:32;101296.50;;;4.09;89.28
6208;BME280;3137;51.550;7.060;2022-12-07T01:54:30;101297.72;;;4.00;90.04
6208;BME280;3137;51.550;7.060;2022-12-07T01:56:57;101294.22;;;4.00;89.68
6208;BME280;3137;51.550;7.060;2022-12-07T01:59:25;101303.88;;;4.01;89.80
6208;BME280;3137;51.550;7.060;2022-12-07T02:01:54;101292.59;;;3.96;89.40
6208;BME280;3137;51.550;7.060;2022-12-07T02:04:22;101295.13;;;3.99;89.83
6208;BME280;3137;51.550;7.060;2022-12-07T02:06:48;101299.56;;;3.98;89.30
6208;BME280;3137;51.550;7.060;2022-12-07T02:09:16;101283.63;;;4.00;89.85
6208;BME280;3137;51.550;7.060;2022-12-07T02:11:42;101284.47;;;4.00;89.35
6208;BME280;3137;51.550;7.060;2022-12-07T02:14:09;101285.47;;;3.98;89.19
6208;BME280;3137;51.550;7.060;2022-12-07T02:16:49;101282.69;;;4.01;89.37
6208;BME280;3137;51.550;7.060;2022-12-07T02:19:44;101278.31;;;4.00;89.23
6208;BME280;3137;51.550;7.060;2022-12-07T02:28:05;101279.38;;;3.94;89.58
6208;BME280;3137;51.550;7.060;2022-12-07T02:30:35;101283.16;;;3.87;89.58
6208;BME280;3137;51.550;7.060;2022-12-07T02:33:14;101285.00;;;3.85;89.08
6208;BME280;3137;51.550;7.060;2022-12-07T02:35:47;101294.19;;;3.75;89.26
6208;BME280;3137;51.550;7.060;2022-12-07T02:38:19;101288.16;;;3.71;89.38
6208;BME280;3137;51.550;7.060;2022-12-07T02:40:57;101283.75;;;3.70;89.82
6208;BME280;3137;51.550;7.060;2022-12-07T02:43:56;101289.34;;;3.61;88.60
6208;BME280;3137;51.550;7.060;2022-12-07T02:46:27;101286.00;;;3.56;89.20
6208;BME280;3137;51.550;7.060;2022-12-07T02:48:56;101287.94;;;3.51;89.63
6208;BME280;3137;51.550;7.060;2022-12-07T02:51:25;101287.00;;;3.52;89.32
6208;BME280;3137;51.550;7.060;2022-12-07T02:53:55;101283.66;;;3.47;89.03
6208;BME280;3137;51.550;7.060;2022-12-07T02:56:31;101284.88;;;3.36;88.84
6208;BME280;3137;51.550;7.060;2022-12-07T02:59:15;101286.56;;;3.39;88.71
6208;BME280;3137;51.550;7.060;2022-12-07T03:13:09;101288.41;;;3.09;89.68
6208;BME280;3137;51.550;7.060;2022-12-07T03:15:46;101294.59;;;3.09;89.69
6208;BME280;3137;51.550;7.060;2022-12-07T03:18:18;101294.03;;;3.00;90.03
6208;BME280;3137;51.550;7.060;2022-12-07T03:20:50;101297.56;;;2.98;89.72
6208;BME280;3137;51.550;7.060;2022-12-07T03:23:19;101295.19;;;2.89;89.69
6208;BME280;3137;51.550;7.060;2022-12-07T03:25:49;101289.91;;;2.89;89.48
6208;BME280;3137;51.550;7.060;2022-12-07T03:28:30;101294.16;;;2.95;89.71
6208;BME280;3137;51.550;7.060;2022-12-07T03:31:00;101296.94;;;2.90;89.71
6208;BME280;3137;51.550;7.060;2022-12-07T03:33:33;101290.81;;;2.90;89.54
6208;BME280;3137;51.550;7.060;2022-12-07T03:36:15;101285.94;;;2.76;89.70
6208;BME280;3137;51.550;7.060;2022-12-07T03:38:56;101282.50;;;2.72;89.74
6208;BME280;3137;51.550;7.060;2022-12-07T03:41:30;101282.81;;;2.62;90.24
6208;BME280;3137;51.550;7.060;2022-12-07T03:43:57;101282.81;;;2.62;90.48
6208;BME280;3137;51.550;7.060;2022-12-07T03:46:38;101281.16;;;2.59;90.55
6208;BME280;3137;51.550;7.060;2022-12-07T03:52:11;101277.41;;;2.66;90.64
6208;BME280;3137;51.550;7.060;2022-12-07T03:54:45;101274.03;;;2.61;90.80
6208;BME280;3137;51.550;7.060;2022-12-07T03:57:15;101280.13;;;2.63;90.68
6208;BME280;3137;51.550;7.060;2022-12-07T03:59:42;101276.00;;;2.54;90.35
6208;BME280;3137;51.550;7.060;2022-12-07T04:02:11;101275.84;;;2.59;90.68
6208;BME280;3137;51.550;7.060;2022-12-07T04:04:39;101275.13;;;2.54;91.11
6208;BME280;3137;51.550;7.060;2022-12-07T04:07:05;101276.09;;;2.51;90.99
6208;BME280;3137;51.550;7.060;2022-12-07T04:09:31;101277.34;;;2.68;91.46
6208;BME280;3137;51.550;7.060;2022-12-07T04:11:58;101278.22;;;2.68;91.17
6208;BME280;3137;51.550;7.060;2022-12-07T04:14:24;101287.84;;;2.71;91.48
6208;BME280;3137;51.550;7.060;2022-12-07T04:16:56;101273.72;;;2.70;91.25
6208;BME280;3137;51.550;7.060;2022-12-07T04:19:26;101277.34;;;2.68;90.97
6208;BME280;3137;51.550;7.060;2022-12-07T04:21:54;101276.38;;;2.70;91.25
6208;BME280;3137;51.550;7.060;2022-12-07T04:24:21;101274.38;;;2.79;90.46
6208;BME280;3137;51.550;7.060;2022-12-07T04:26:47;101279.09;;;2.69;90.87
6208;BME280;3137;51.550;7.060;2022-12-07T04:29:15;101281.03;;;2.62;90.33
6208;BME280;3137;51.550;7.060;2022-12-07T04:31:42;101280.44;;;2.52;91.00
6208;BME280;3137;51.550;7.060;2022-12-07T04:34:09;101282.00;;;2.60;90.44
6208;BME280;3137;51.550;7.060;2022-12-07T04:36:36;101269.88;;;2.52;90.53
6208;BME280;3137;51.550;7.060;2022-12-07T04:39:04;101275.06;;;2.55;90.79
6208;BME280;3137;51.550;7.060;2022-12-07T04:41:31;101278.28;;;2.65;90.65
6208;BME280;3137;51.550;7.060;2022-12-07T04:43:59;101282.56;;;2.71;90.54
6208;BME280;3137;51.550;7.060;2022-12-07T04:46:28;101278.41;;;2.62;90.32
6208;BME280;3137;51.550;7.060;2022-12-07T04:48:55;101273.97;;;2.63;90.61
6208;BME280;3137;51.550;7.060;2022-12-07T04:51:24;101278.38;;;2.64;90.52
6208;BME280;3137;51.550;7.060;2022-12-07T04:53:51;101271.44;;;2.60;90.47
6208;BME280;3137;51.550;7.060;2022-12-07T04:56:18;101274.03;;;2.61;90.55
6208;BME280;3137;51.550;7.060;2022-12-07T04:58:46;101267.84;;;2.61;89.72
6208;BME280;3137;51.550;7.060;2022-12-07T05:01:16;101273.25;;;2.58;90.12
6208;BME280;3137;51.550;7.060;2022-12-07T05:03:43;101267.81;;;2.62;90.54
6208;BME280;3137;51.550;7.060;2022-12-07T05:06:10;101269.59;;;2.62;90.60
6208;BME280;3137;51.550;7.060;2022-12-07T05:08:39;101263.63;;;2.55;91.11
6208;BME280;3137;51.550;7.060;2022-12-07T05:11:06;101263.63;;;2.55;90.90
6208;BME280;3137;51.550;7.060;2022-12-07T05:13:34;101272.38;;;2.57;90.65
6208;BME280;3137;51.550;7.060;2022-12-07T05:16:01;101270.63;;;2.56;90.88
6208;BME280;3137;51.550;7.060;2022-12-07T05:18:28;101266.13;;;2.60;90.26
6208;BME280;3137;51.550;7.060;2022-12-07T05:20:55;101268.16;;;2.51;89.95
6208;BME280;3137;51.550;7.060;2022-12-07T05:23:21;101261.13;;;2.50;90.41
6208;BME280;3137;51.550;7.060;2022-12-07T05:25:47;101262.13;;;2.46;90.44
6208;BME280;3137;51.550;7.060;2022-12-07T05:28:14;101271.78;;;2.47;90.26
6208;BME280;3137;51.550;7.060;2022-12-07T05:30:40;101275.19;;;2.51;90.61
6208;BME280;3137;51.550;7.060;2022-12-07T05:33:06;101267.19;;;2.54;90.57
6208;BME280;3137;51.550;7.060;2022-12-07T05:35:33;101269.72;;;2.59;89.87
6208;BME280;3137;51.550;7.060;2022-12-07T05:37:59;101265.19;;;2.62;89.71
6208;BME280;3137;51.550;7.060;2022-12-07T05:40:25;101273.22;;;2.59;89.95
6208;BME280;3137;51.550;7.060;2022-12-07T05:42:52;101269.75;;;2.57;90.83
6208;BME280;3137;51.550;7.060;2022-12-07T05:45:18;101268.91;;;2.55;90.45
6208;BME280;3137;51.550;7.060;2022-12-07T05:47:45;101269.91;;;2.51;91.04
6208;BME280;3137;51.550;7.060;2022-12-07T05:50:11;101265.34;;;2.56;91.27
6208;BME280;3137;51.550;7.060;2022-12-07T05:52:37;101262.72;;;2.56;90.32
6208;BME280;3137;51.550;7.060;2022-12-07T05:55:04;101262.66;;;2.58;91.12
6208;BME280;3137;51.550;7.060;2022-12-07T05:57:30;101261.72;;;2.60;90.66
6208;BME280;3137;51.550;7.060;2022-12-07T05:59:57;101266.88;;;2.65;91.09
6208;BME280;3137;51.550;7.060;2022-12-07T06:02:23;101268.59;;;2.66;90.23
6208;BME280;3137;51.550;7.060;2022-12-07T06:04:49;101259.75;;;2.67;90.94
6208;BME280;3137;51.550;7.060;2022-12-07T06:07:16;101263.28;;;2.66;90.62
6208;BME280;3137;51.550;7.060;2022-12-07T06:09:43;101263.41;;;2.63;90.71
6208;BME280;3137;51.550;7.060;2022-12-07T06:12:13;101263.16;;;2.70;90.68
6208;BME280;3137;51.550;7.060;2022-12-07T06:14:58;101266.75;;;2.68;90.90
6208;BME280;3137;51.550;7.060;2022-12-07T06:17:24;101263.34;;;2.64;90.85
6208;BME280;3137;51.550;7.060;2022-12-07T06:19:51;101250.97;;;2.66;90.59
6208;BME280;3137;51.550;7.060;2022-12-07T06:22:17;101264.19;;;2.66;90.50
6208;BME280;3137;51.550;7.060;2022-12-07T06:24:44;101261.47;;;2.68;90.02
6208;BME280;3137;51.550;7.060;2022-12-07T06:27:10;101274.06;;;2.60;90.59
6208;BME280;3137;51.550;7.060;2022-12-07T06:29:37;101271.47;;;2.58;90.12
6208;BME280;3137;51.550;7.060;2022-12-07T06:32:04;101266.38;;;2.52;90.27
6208;BME280;3137;51.550;7.060;2022-12-07T06:34:31;101263.63;;;2.55;90.33
6208;BME280;3137;51.550;7.060;2022-12-07T06:36:57;101261.09;;;2.52;90.53
6208;BME280;3137;51.550;7.060;2022-12-07T06:39:26;101268.88;;;2.57;90.03
6208;BME280;3137;51.550;7.060;2022-12-07T06:41:53;101270.81;;;2.51;90.49
6208;BME280;3137;51.550;7.060;2022-12-07T06:44:20;101269.06;;;2.50;90.79
6208;BME280;3137;51.550;7.060;2022-12-07T06:46:48;101270.69;;;2.54;90.51
6208;BME280;3137;51.550;7.060;2022-12-07T06:49:15;101270.03;;;2.46;91.02
6208;BME280;3137;51.550;7.060;2022-12-07T06:51:41;101266.41;;;2.50;89.89
6208;BME280;3137;51.550;7.060;2022-12-07T06:54:09;101266.59;;;2.44;90.02
6208;BME280;3137;51.550;7.060;2022-12-07T06:56:35;101275.47;;;2.42;90.22
6208;BME280;3137;51.550;7.060;2022-12-07T06:59:02;101273.06;;;2.34;90.13
6208;BME280;3137;51.550;7.060;2022-12-07T07:01:29;101275.66;;;2.36;90.45
6208;BME280;3137;51.550;7.060;2022-12-07T07:03:55;101271.44;;;2.30;90.01
6208;BME280;3137;51.550;7.060;2022-12-07T07:06:21;101281.09;;;2.29;90.27
6208;BME280;3137;51.550;7.060;2022-12-07T07:08:48;101281.09;;;2.29;90.03
6208;BME280;3137;51.550;7.060;2022-12-07T07:11:14;101281.91;;;2.33;90.35
6208;BME280;3137;51.550;7.060;2022-12-07T07:13:41;101286.25;;;2.34;90.34
6208;BME280;3137;51.550;7.060;2022-12-07T07:16:07;101282.59;;;2.40;89.50
6208;BME280;3137;51.550;7.060;2022-12-07T07:18:34;101293.34;;;2.33;90.01
6208;BME280;3137;51.550;7.060;2022-12-07T07:21:01;101302.34;;;2.26;89.69
6208;BME280;3137;51.550;7.060;2022-12-07T07:23:27;101287.34;;;2.27;89.80
6208;BME280;3137;51.550;7.060;2022-12-07T07:25:54;101294.38;;;2.28;89.96
6208;BME280;3137;51.550;7.060;2022-12-07T07:28:20;101288.97;;;2.32;90.28
6208;BME280;3137;51.550;7.060;2022-12-07T07:30:46;101286.13;;;2.39;89.77
6208;BME280;3137;51.550;7.060;2022-12-07T07:33:13;101300.41;;;2.33;89.98
6208;BME280;3137;51.550;7.060;2022-12-07T07:35:39;101293.25;;;2.37;90.01
6208;BME280;3137;51.550;7.060;2022-12-07T07:38:06;101287.28;;;2.30;90.28
6208;BME280;3137;51.550;7.060;2022-12-07T07:40:33;101281.81;;;2.36;90.71
6208;BME280;3137;51.550;7.060;2022-12-07T07:42:59;101290.00;;;2.27;90.38
6208;BME280;3137;51.550;7.060;2022-12-07T07:45:27;101291.63;;;2.32;90.37
6208;BME280;3137;51.550;7.060;2022-12-07T07:47:53;101282.78;;;2.32;89.78
6208;BME280;3137;51.550;7.060;2022-12-07T07:50:21;101292.69;;;2.25;90.17
6208;BME280;3137;51.550;7.060;2022-12-07T07:52:48;101293.31;;;2.35;90.39
6208;BME280;3137;51.550;7.060;2022-12-07T07:55:14;101288.66;;;2.43;90.34
6208;BME280;3137;51.550;7.060;2022-12-07T07:57:43;101285.00;;;2.47;90.08
6208;BME280;3137;51.550;7.060;2022-12-07T08:00:16;101287.75;;;2.44;90.29
6208;BME280;3137;51.550;7.060;2022-12-07T08:02:43;101283.22;;;2.48;90.22
6208;BME280;3137;51.550;7.060;2022-12-07T08:05:11;101292.81;;;2.52;90.06
6208;BME280;3137;51.550;7.060;2022-12-07T08:07:38;101281.38;;;2.51;90.87
6208;BME280;3137;51.550;7.060;2022-12-07T08:10:05;101291.16;;;2.48;90.85
6208;BME280;3137;51.550;7.060;2022-12-07T08:12:35;101296.28;;;2.54;90.67
6208;BME280;3137;51.550;7.060;2022-12-07T08:15:02;101295.25;;;2.58;90.90
6208;BME280;3137;51.550;7.060;2022-12-07T08:17:28;101295.09;;;2.64;90.63
6208;BME280;3137;51.550;7.060;2022-12-07T08:19:55;101294.97;;;2.69;90.56
6208;BME280;3137;51.550;7.060;2022-12-07T08:22:21;101300.19;;;2.70;91.08
6208;BME280;3137;51.550;7.060;2022-12-07T08:24:47;101306.06;;;2.80;90.11
6208;BME280;3137;51.550;7.060;2022-12-07T08:27:14;101303.41;;;2.80;90.80
6208;BME280;3137;51.550;7.060;2022-12-07T08:29:40;101297.78;;;2.92;90.02
6208;BME280;3137;51.550;7.060;2022-12-07T08:32:06;101300.41;;;2.92;90.40
6208;BME280;3137;51.550;7.060;2022-12-07T08:34:35;101300.28;;;2.97;90.33
6208;BME280;3137;51.550;7.060;2022-12-07T08:37:03;101304.59;;;3.00;90.33
6208;BME280;3137;51.550;7.060;2022-12-07T08:39:29;101310.91;;;2.95;90.38
6208;BME280;3137;51.550;7.060;2022-12-07T08:41:57;101307.28;;;2.98;90.03
6208;BME280;3137;51.550;7.060;2022-12-07T08:44:23;101311.78;;;2.94;89.42
6208;BME280;3137;51.550;7.060;2022-12-07T08:46:53;101314.44;;;2.94;89.31
6208;BME280;3137;51.550;7.060;2022-12-07T08:49:35;101314.41;;;2.96;89.90
6208;BME280;3137;51.550;7.060;2022-12-07T08:52:04;101316.31;;;2.91;89.96
6208;BME280;3137;51.550;7.060;2022-12-07T08:54:33;101314.28;;;2.99;88.96
6208;BME280;3137;51.550;7.060;2022-12-07T08:57:01;101306.44;;;2.97;89.66
6208;BME280;3137;51.550;7.060;2022-12-07T08:59:28;101318.44;;;3.08;89.55
6208;BME280;3137;51.550;7.060;2022-12-07T09:01:55;101312.16;;;3.12;89.94
6208;BME280;3137;51.550;7.060;2022-12-07T09:04:21;101308.47;;;3.16;89.20
6208;BME280;3137;51.550;7.060;2022-12-07T09:06:48;101306.56;;;3.21;89.59
6208;BME280;3137;51.550;7.060;2022-12-07T09:09:15;101307.97;;;3.33;89.87
6208;BME280;3137;51.550;7.060;2022-12-07T09:11:41;101308.03;;;3.30;89.57
6208;BME280;3137;51.550;7.060;2022-12-07T09:14:08;101304.34;;;3.35;88.56
6208;BME280;3137;51.550;7.060;2022-12-07T09:16:34;101312.91;;;3.44;89.15
6208;BME280;3137;51.550;7.060;2022-12-07T09:19:01;101316.41;;;3.44;88.74
6208;BME280;3137;51.550;7.060;2022-12-07T09:21:27;101319.13;;;3.43;88.72
6208;BME280;3137;51.550;7.060;2022-12-07T09:23:54;101312.03;;;3.43;88.46
6208;BME280;3137;51.550;7.060;2022-12-07T09:26:20;101312.91;;;3.44;87.61
6208;BME280;3137;51.550;7.060;2022-12-07T09:28:46;101310.28;;;3.42;88.02
6208;BME280;3137;51.550;7.060;2022-12-07T09:31:13;101313.69;;;3.47;88.02
6208;BME280;3137;51.550;7.060;2022-12-07T09:33:57;101311.22;;;3.41;87.48
6208;BME280;3137;51.550;7.060;2022-12-07T09:36:26;101315.34;;;3.50;87.85
6208;BME280;3137;51.550;7.060;2022-12-07T09:38:52;101313.50;;;3.52;87.94
6208;BME280;3137;51.550;7.060;2022-12-07T09:41:19;101303.72;;;3.54;87.91
6208;BME280;3137;51.550;7.060;2022-12-07T09:43:47;101307.56;;;3.45;87.71
6208;BME280;3137;51.550;7.060;2022-12-07T09:46:15;101302.97;;;3.50;87.37
6208;BME280;3137;51.550;7.060;2022-12-07T09:48:44;101304.59;;;3.54;87.03
6208;BME280;3137;51.550;7.060;2022-12-07T09:51:17;101299.34;;;3.53;87.26
6208;BME280;3137;51.550;7.060;2022-12-07T09:53:51;101295.75;;;3.55;87.95
6208;BME280;3137;51.550;7.060;2022-12-07T09:56:19;101287.56;;;3.61;87.29
6208;BME280;3137;51.550;7.060;2022-12-07T09:58:46;101296.34;;;3.63;86.77
6208;BME280;3137;51.550;7.060;2022-12-07T10:01:21;101287.69;;;3.58;87.09
6208;BME280;3137;51.550;7.060;2022-12-07T10:04:12;101289.59;;;3.55;86.82
6208;BME280;3137;51.550;7.060;2022-12-07T10:06:41;101286.94;;;3.55;86.79
6208;BME280;3137;51.550;7.060;2022-12-07T10:09:12;101292.22;;;3.55;86.53
6208;BME280;3137;51.550;7.060;2022-12-07T10:12:08;101296.47;;;3.59;86.29
6208;BME280;3137;51.550;7.060;2022-12-07T10:14:40;101291.09;;;3.62;86.40
6208;BME280;3137;51.550;7.060;2022-12-07T10:17:38;101293.44;;;3.71;86.83
6208;BME280;3137;51.550;7.060;2022-12-07T10:22:58;101290.13;;;3.90;85.80
6208;BME280;3137;51.550;7.060;2022-12-07T10:25:31;101291.72;;;3.95;86.46
6208;BME280;3137;51.550;7.060;2022-12-07T10:28:01;101277.72;;;3.92;86.08
6208;BME280;3137;51.550;7.060;2022-12-07T10:30:28;101278.94;;;4.07;86.37
6208;BME280;3137;51.550;7.060;2022-12-07T10:32:55;101274.53;;;4.07;85.28
6208;BME280;3137;51.550;7.060;2022-12-07T10:35:29;101279.38;;;4.19;86.14
6208;BME280;3137;51.550;7.060;2022-12-07T10:37:58;101276.22;;;4.10;85.25
6208;BME280;3137;51.550;7.060;2022-12-07T10:40:34;101274.25;;;4.15;85.43
6208;BME280;3137;51.550;7.060;2022-12-07T10:45:32;101254.75;;;4.16;85.56
6208;BME280;3137;51.550;7.060;2022-12-07T10:48:29;101259.03;;;4.20;84.86
6208;BME280;3137;51.550;7.060;2022-12-07T10:51:11;101260.53;;;4.27;85.20
6208;BME280;3137;51.550;7.060;2022-12-07T10:53:50;101249.94;;;4.27;85.08
6208;BME280;3137;51.550;7.060;2022-12-07T10:59:23;101247.28;;;4.51;84.25
6208;BME280;3137;51.550;7.060;2022-12-07T11:02:35;101245.31;;;4.56;84.30
6208;BME280;3137;51.550;7.060;2022-12-07T11:05:17;101250.91;;;4.48;84.66
6208;BME280;3137;51.550;7.060;2022-12-07T11:08:11;101252.25;;;4.60;84.52
6208;BME280;3137;51.550;7.060;2022-12-07T11:13:29;101242.19;;;4.68;83.56
6208;BME280;3137;51.550;7.060;2022-12-07T11:21:44;101230.22;;;4.80;83.24
6208;BME280;3137;51.550;7.060;2022-12-07T11:24:32;101223.44;;;4.95;83.12
6208;BME280;3137;51.550;7.060;2022-12-07T11:27:07;101229.41;;;5.00;83.20
6208;BME280;3137;51.550;7.060;2022-12-07T11:32:51;101214.84;;;4.88;82.01
6208;BME280;3137;51.550;7.060;2022-12-07T11:35:36;101212.19;;;4.88;81.17
6208;BME280;3137;51.550;7.060;2022-12-07T11:38:11;101206.34;;;4.80;81.24
6208;BME280;3137;51.550;7.060;2022-12-07T11:40:39;101202.66;;;4.84;81.48
6208;BME280;3137;51.550;7.060;2022-12-07T11:45:39;101213.94;;;4.89;81.87
6208;BME280;3137;51.550;7.060;2022-12-07T11:48:29;101205.84;;;4.92;80.87
6208;BME280;3137;51.550;7.060;2022-12-07T11:50:57;101204.13;;;4.91;81.33
6208;BME280;3137;51.550;7.060;2022-12-07T11:53:31;101204.81;;;4.96;80.87
6208;BME280;3137;51.550;7.060;2022-12-07T11:56:09;101198.50;;;4.99;80.13
6208;BME280;3137;51.550;7.060;2022-12-07T11:58:42;101199.38;;;4.99;80.14
6208;BME280;3137;51.550;7.060;2022-12-07T12:03:55;101199.72;;;4.90;80.64
6208;BME280;3137;51.550;7.060;2022-12-07T12:06:23;101200.53;;;4.92;80.34
6208;BME280;3137;51.550;7.060;2022-12-07T12:15:06;101194.50;;;4.88;79.37
6208;BME280;3137;51.550;7.060;2022-12-07T12:17:53;101195.25;;;4.92;79.14
6208;BME280;3137;51.550;7.060;2022-12-07T12:20:40;101184.38;;;4.98;79.18
6208;BME280;3137;51.550;7.060;2022-12-07T12:25:45;101193.34;;;5.16;79.32
6208;BME280;3137;51.550;7.060;2022-12-07T12:31:05;101183.69;;;5.15;79.98
6208;BME280;3137;51.550;7.060;2022-12-07T12:33:32;101178.38;;;5.15;79.53
6208;BME280;3137;51.550;7.060;2022-12-07T12:36:43;101174.72;;;5.18;79.98
6208;BME280;3137;51.550;7.060;2022-12-07T12:39:14;101175.72;;;5.15;79.47
6208;BME280;3137;51.550;7.060;2022-12-07T12:56:55;101151.53;;;5.21;79.55
6208;BME280;3137;51.550;7.060;2022-12-07T12:59:32;101149.63;;;5.25;79.76
6208;BME280;3137;51.550;7.060;2022-12-07T13:02:15;101155.53;;;5.31;79.74
6208;BME280;3137;51.550;7.060;2022-12-07T13:29:20;101142.72;;;5.21;80.06
6208;BME280;3137;51.550;7.060;2022-12-07T13:31:57;101136.28;;;5.26;79.90
6208;BME280;3137;51.550;7.060;2022-12-07T13:34:38;101136.75;;;5.16;79.86
6208;BME280;3137;51.550;7.060;2022-12-07T13:37:24;101141.91;;;5.19;80.28
6208;BME280;3137;51.550;7.060;2022-12-07T13:42:29;101135.72;;;4.98;81.70
6208;BME280;3137;51.550;7.060;2022-12-07T13:44:57;101140.44;;;4.69;81.36
6208;BME280;3137;51.550;7.060;2022-12-07T13:47:41;101130.03;;;4.42;81.31
6208;BME280;3137;51.550;7.060;2022-12-07T13:50:26;101121.06;;;4.23;81.21
6208;BME280;3137;51.550;7.060;2022-12-07T13:53:00;101117.06;;;4.13;82.61
6208;BME280;3137;51.550;7.060;2022-12-07T13:55:29;101117.72;;;4.18;82.37
6208;BME280;3137;51.550;7.060;2022-12-07T13:57:55;101114.28;;;4.16;82.82
6208;BME280;3137;51.550;7.060;2022-12-07T14:00:26;101104.34;;;4.21;83.30
6208;BME280;3137;51.550;7.060;2022-12-07T14:02:58;101107.69;;;4.26;82.69
6208;BME280;3137;51.550;7.060;2022-12-07T14:05:28;101096.41;;;4.21;83.72
6208;BME280;3137;51.550;7.060;2022-12-07T14:12:50;101097.38;;;4.40;84.08
6208;BME280;3137;51.550;7.060;2022-12-07T14:15:33;101094.81;;;4.39;83.92
6208;BME280;3137;51.550;7.060;2022-12-07T14:18:02;101099.06;;;4.43;84.10
6208;BME280;3137;51.550;7.060;2022-12-07T14:20:37;101093.75;;;4.43;83.56
6208;BME280;3137;51.550;7.060;2022-12-07T14:23:05;101083.28;;;4.40;83.74
6208;BME280;3137;51.550;7.060;2022-12-07T14:25:46;101083.22;;;4.41;83.41
6208;BME280;3137;51.550;7.060;2022-12-07T14:28:31;101085.03;;;4.41;83.80
6208;BME280;3137;51.550;7.060;2022-12-07T14:30:58;101075.19;;;4.43;83.19
6208;BME280;3137;51.550;7.060;2022-12-07T14:33:25;101083.16;;;4.43;82.77
6208;BME280;3137;51.550;7.060;2022-12-07T14:35:52;101085.13;;;4.38;83.21
6208;BME280;3137;51.550;7.060;2022-12-07T14:38:25;101083.59;;;4.32;83.08
6208;BME280;3137;51.550;7.060;2022-12-07T14:40:53;101079.28;;;4.30;83.16
6208;BME280;3137;51.550;7.060;2022-12-07T14:43:20;101082.25;;;4.22;82.70
6208;BME280;3137;51.550;7.060;2022-12-07T14:45:46;101076.75;;;4.26;82.74
6208;BME280;3137;51.550;7.060;2022-12-07T14:48:14;101069.84;;;4.22;83.09
6208;BME280;3137;51.550;7.060;2022-12-07T14:51:02;101064.00;;;4.14;82.93
6208;BME280;3137;51.550;7.060;2022-12-07T14:53:50;101066.66;;;4.14;82.66
6208;BME280;3137;51.550;7.060;2022-12-07T14:56:23;101069.53;;;4.08;83.22
6208;BME280;3137;51.550;7.060;2022-12-07T14:58:50;101078.41;;;4.07;83.52
6208;BME280;3137;51.550;7.060;2022-12-07T15:01:16;101070.81;;;3.98;83.56
6208;BME280;3137;51.550;7.060;2022-12-07T15:03:42;101074.28;;;4.00;83.42
6208;BME280;3137;51.550;7.060;2022-12-07T15:06:13;101071.16;;;3.89;83.23
6208;BME280;3137;51.550;7.060;2022-12-07T15:08:40;101066.78;;;3.88;82.92
6208;BME280;3137;51.550;7.060;2022-12-07T15:11:11;101066.69;;;3.91;83.36
6208;BME280;3137;51.550;7.060;2022-12-07T15:13:38;101070.34;;;3.87;83.32
6208;BME280;3137;51.550;7.060;2022-12-07T15:16:23;101064.69;;;3.74;83.92
6208;BME280;3137;51.550;7.060;2022-12-07T15:18:49;101057.41;;;3.79;83.31
6208;BME280;3137;51.550;7.060;2022-12-07T15:21:36;101056.66;;;3.75;83.90
6208;BME280;3137;51.550;7.060;2022-12-07T15:24:02;101054.19;;;3.71;83.81
6208;BME280;3137;51.550;7.060;2022-12-07T15:26:29;101055.13;;;3.70;84.02
6208;BME280;3137;51.550;7.060;2022-12-07T15:28:55;101056.78;;;3.72;83.63
6208;BME280;3137;51.550;7.060;2022-12-07T15:31:21;101055.28;;;3.65;84.19
6208;BME280;3137;51.550;7.060;2022-12-07T15:34:08;101057.88;;;3.67;84.65
6208;BME280;3137;51.550;7.060;2022-12-07T15:36:35;101049.81;;;3.70;85.14
6208;BME280;3137;51.550;7.060;2022-12-07T15:39:02;101052.41;;;3.71;84.62